sensor_id;sensor_type;location;lat;lon;timestamp;pressure;altitude;pressure_sealevel;temperature;humidity
3444;BME280;1736;52.068;6.968;2023-01-29T00:02:26;102447.78;;;0.78;83.61
3444;BME280;1736;52.068;6.968;2023-01-29T00:04:53;102452.94;;;0.82;84.15
3444;BME280;1736;52.068;6.968;2023-01-29T00:07:19;102452.97;;;0.81;84.51
3444;BME280;1736;52.068;6.968;2023-01-29T00:09:46;102453.88;;;0.80;84.48
3444;BME280;1736;52.068;6.968;2023-01-29T00:12:12;102454.69;;;0.82;84.48
3444;BME280;1736;52.068;6.968;2023-01-29T00:14:39;102461.63;;;0.83;84.51
3444;BME280;1736;52.068;6.968;2023-01-29T00:17:07;102466.78;;;0.89;84.56
3444;BME280;1736;52.068;6.968;2023-01-29T00:19:34;102454.66;;;0.85;84.79
3444;BME280;1736;52.068;6.968;2023-01-29T00:22:01;102451.06;;;0.90;84.83
3444;BME280;1736;52.068;6.968;2023-01-29T00:24:27;102445.84;;;0.90;85.07
3444;BME280;1736;52.068;6.968;2023-01-29T00:26:54;102465.84;;;0.93;84.94
3444;BME280;1736;52.068;6.968;2023-01-29T00:29:20;102452.00;;;0.86;85.24
3444;BME280;1736;52.068;6.968;2023-01-29T00:31:47;102441.63;;;0.80;85.68
3444;BME280;1736;52.068;6.968;2023-01-29T00:34:15;102435.53;;;0.81;86.19
3444;BME280;1736;52.068;6.968;2023-01-29T00:36:41;102442.56;;;0.78;85.88
3444;BME280;1736;52.068;6.968;2023-01-29T00:39:09;102438.19;;;0.80;86.16
3444;BME280;1736;52.068;6.968;2023-01-29T00:41:36;102442.53;;;0.79;86.30
3444;BME280;1736;52.068;6.968;2023-01-29T00:44:21;102445.13;;;0.81;86.56
3444;BME280;1736;52.068;6.968;2023-01-29T00:47:05;102437.31;;;0.78;87.08
3444;BME280;1736;52.068;6.968;2023-01-29T00:49:54;102432.09;;;0.79;86.94
3444;BME280;1736;52.068;6.968;2023-01-29T00:52:21;102431.16;;;0.82;86.76
3444;BME280;1736;52.068;6.968;2023-01-29T00:54:50;102418.91;;;0.85;86.07
3444;BME280;1736;52.068;6.968;2023-01-29T00:57:17;102412.78;;;0.88;85.63
3444;BME280;1736;52.068;6.968;2023-01-29T00:59:44;102408.41;;;0.88;85.88
3444;BME280;1736;52.068;6.968;2023-01-29T01:02:10;102402.25;;;0.91;85.92
3444;BME280;1736;52.068;6.968;2023-01-29T01:04:56;102393.63;;;0.87;85.83
3444;BME280;1736;52.068;6.968;2023-01-29T01:07:23;102388.47;;;0.83;86.34
3444;BME280;1736;52.068;6.968;2023-01-29T01:09:49;102392.00;;;0.80;85.97
3444;BME280;1736;52.068;6.968;2023-01-29T01:12:33;102398.94;;;0.81;85.94
3444;BME280;1736;52.068;6.968;2023-01-29T01:15:00;102399.84;;;0.79;85.88
3444;BME280;1736;52.068;6.968;2023-01-29T01:17:26;102399.00;;;0.80;85.81
3444;BME280;1736;52.068;6.968;2023-01-29T01:19:53;102414.69;;;0.78;86.15
3444;BME280;1736;52.068;6.968;2023-01-29T01:22:21;102421.66;;;0.78;86.08
3444;BME280;1736;52.068;6.968;2023-01-29T01:24:47;102428.50;;;0.85;86.07
3444;BME280;1736;52.068;6.968;2023-01-29T01:27:14;102412.72;;;0.89;86.04
3444;BME280;1736;52.068;6.968;2023-01-29T01:29:41;102402.34;;;0.86;86.23
3444;BME280;1736;52.068;6.968;2023-01-29T01:32:08;102396.88;;;1.00;85.70
3444;BME280;1736;52.068;6.968;2023-01-29T01:34:34;102398.78;;;0.92;85.63
3444;BME280;1736;52.068;6.968;2023-01-29T01:37:01;102391.06;;;0.83;85.88
3444;BME280;1736;52.068;6.968;2023-01-29T01:39:29;102395.47;;;0.81;86.50
3444;BME280;1736;52.068;6.968;2023-01-29T01:41:55;102399.84;;;0.80;86.74
3444;BME280;1736;52.068;6.968;2023-01-29T01:44:48;102405.97;;;0.78;87.17
3444;BME280;1736;52.068;6.968;2023-01-29T01:47:17;102394.41;;;0.91;86.15
3444;BME280;1736;52.068;6.968;2023-01-29T01:49:46;102397.06;;;0.89;86.11
3444;BME280;1736;52.068;6.968;2023-01-29T01:52:13;102392.69;;;0.91;86.07
3444;BME280;1736;52.068;6.968;2023-01-29T01:54:43;102389.31;;;0.85;86.09
3444;BME280;1736;52.068;6.968;2023-01-29T01:57:14;102398.88;;;0.84;86.41
3444;BME280;1736;52.068;6.968;2023-01-29T01:59:45;102393.81;;;0.77;86.28
3444;BME280;1736;52.068;6.968;2023-01-29T02:02:15;102398.91;;;0.83;86.67
3444;BME280;1736;52.068;6.968;2023-01-29T02:05:00;102405.88;;;0.84;86.26
3444;BME280;1736;52.068;6.968;2023-01-29T02:07:46;102412.00;;;0.81;86.50
3444;BME280;1736;52.068;6.968;2023-01-29T02:10:36;102411.97;;;0.84;85.97
3444;BME280;1736;52.068;6.968;2023-01-29T02:13:05;102411.88;;;0.89;86.37
3444;BME280;1736;52.068;6.968;2023-01-29T02:15:32;102407.66;;;0.82;86.12
3444;BME280;1736;52.068;6.968;2023-01-29T02:17:59;102402.34;;;0.88;85.76
3444;BME280;1736;52.068;6.968;2023-01-29T02:20:27;102395.50;;;0.79;86.30
3444;BME280;1736;52.068;6.968;2023-01-29T02:23:12;102402.47;;;0.79;86.03
3444;BME280;1736;52.068;6.968;2023-01-29T02:28:40;102397.19;;;0.82;86.47
3444;BME280;1736;52.068;6.968;2023-01-29T02:31:22;102405.06;;;0.80;86.70
3444;BME280;1736;52.068;6.968;2023-01-29T02:34:07;102403.28;;;0.84;86.26
3444;BME280;1736;52.068;6.968;2023-01-29T02:36:40;102404.13;;;0.83;86.38
3444;BME280;1736;52.068;6.968;2023-01-29T02:39:15;102402.41;;;0.82;86.40
3444;BME280;1736;52.068;6.968;2023-01-29T02:41:45;102403.28;;;0.84;85.91
3444;BME280;1736;52.068;6.968;2023-01-29T02:44:19;102404.06;;;0.89;85.75
3444;BME280;1736;52.068;6.968;2023-01-29T02:46:55;102417.13;;;0.87;85.89
3444;BME280;1736;52.068;6.968;2023-01-29T02:49:28;102411.00;;;0.90;86.13
3444;BME280;1736;52.068;6.968;2023-01-29T02:52:01;102406.81;;;0.80;86.15
3444;BME280;1736;52.068;6.968;2023-01-29T02:54:31;102408.59;;;0.78;86.18
3444;BME280;1736;52.068;6.968;2023-01-29T02:57:04;102409.44;;;0.80;86.00
3444;BME280;1736;52.068;6.968;2023-01-29T02:59:38;102414.56;;;0.84;85.77
3444;BME280;1736;52.068;6.968;2023-01-29T03:02:09;102418.97;;;0.82;86.27
3444;BME280;1736;52.068;6.968;2023-01-29T03:04:40;102417.22;;;0.81;85.67
3444;BME280;1736;52.068;6.968;2023-01-29T03:07:14;102418.81;;;0.91;86.04
3444;BME280;1736;52.068;6.968;2023-01-29T03:10:02;102414.66;;;0.80;85.65
3444;BME280;1736;52.068;6.968;2023-01-29T03:12:33;102414.75;;;0.74;86.39
3444;BME280;1736;52.068;6.968;2023-01-29T03:15:08;102405.22;;;0.70;86.42
3444;BME280;1736;52.068;6.968;2023-01-29T03:17:40;102398.13;;;0.78;86.56
3444;BME280;1736;52.068;6.968;2023-01-29T03:20:11;102406.00;;;0.75;86.73
3444;BME280;1736;52.068;6.968;2023-01-29T03:22:43;102406.88;;;0.75;86.80
3444;BME280;1736;52.068;6.968;2023-01-29T03:25:11;102395.53;;;0.78;86.53
3444;BME280;1736;52.068;6.968;2023-01-29T03:27:59;102395.69;;;0.69;86.88
3444;BME280;1736;52.068;6.968;2023-01-29T03:30:49;102396.56;;;0.68;86.88
3444;BME280;1736;52.068;6.968;2023-01-29T03:33:41;102393.06;;;0.69;87.05
3444;BME280;1736;52.068;6.968;2023-01-29T03:36:13;102383.41;;;0.72;87.17
3444;BME280;1736;52.068;6.968;2023-01-29T03:38:42;102385.06;;;0.78;86.93
3444;BME280;1736;52.068;6.968;2023-01-29T03:41:13;102371.84;;;0.87;87.00
3444;BME280;1736;52.068;6.968;2023-01-29T03:43:49;102362.53;;;0.71;87.20
3444;BME280;1736;52.068;6.968;2023-01-29T03:46:24;102365.16;;;0.69;87.36
3444;BME280;1736;52.068;6.968;2023-01-29T03:48:57;102353.03;;;0.65;87.13
3444;BME280;1736;52.068;6.968;2023-01-29T03:51:30;102346.94;;;0.68;86.99
3444;BME280;1736;52.068;6.968;2023-01-29T03:54:07;102343.50;;;0.63;86.74
3444;BME280;1736;52.068;6.968;2023-01-29T03:56:45;102345.19;;;0.67;86.65
3444;BME280;1736;52.068;6.968;2023-01-29T03:59:20;102347.88;;;0.64;86.98
3444;BME280;1736;52.068;6.968;2023-01-29T04:01:52;102355.72;;;0.64;87.24
3444;BME280;1736;52.068;6.968;2023-01-29T04:04:23;102362.31;;;0.83;86.59
3444;BME280;1736;52.068;6.968;2023-01-29T04:06:53;102361.72;;;0.67;87.16
3444;BME280;1736;52.068;6.968;2023-01-29T04:09:27;102358.19;;;0.70;86.78
3444;BME280;1736;52.068;6.968;2023-01-29T04:12:04;102357.38;;;0.68;86.74
3444;BME280;1736;52.068;6.968;2023-01-29T04:14:33;102357.25;;;0.74;86.93
3444;BME280;1736;52.068;6.968;2023-01-29T04:17:06;102352.16;;;0.68;86.76
3444;BME280;1736;52.068;6.968;2023-01-29T04:19:34;102339.19;;;0.62;86.92
3444;BME280;1736;52.068;6.968;2023-01-29T04:22:05;102338.28;;;0.63;87.75
3444;BME280;1736;52.068;6.968;2023-01-29T04:24:33;102327.00;;;0.62;87.58
3444;BME280;1736;52.068;6.968;2023-01-29T04:27:07;102327.69;;;0.72;87.25
3444;BME280;1736;52.068;6.968;2023-01-29T04:29:49;102328.59;;;0.69;87.61
3444;BME280;1736;52.068;6.968;2023-01-29T04:32:25;102313.78;;;0.70;87.37
3444;BME280;1736;52.068;6.968;2023-01-29T04:34:59;102316.41;;;0.68;87.37
3444;BME280;1736;52.068;6.968;2023-01-29T04:37:34;102322.41;;;0.75;87.07
3444;BME280;1736;52.068;6.968;2023-01-29T04:40:11;102310.34;;;0.68;87.23
3444;BME280;1736;52.068;6.968;2023-01-29T04:42:43;102317.47;;;0.60;87.34
3444;BME280;1736;52.068;6.968;2023-01-29T04:45:18;102303.47;;;0.62;87.49
3444;BME280;1736;52.068;6.968;2023-01-29T04:47:49;102296.47;;;0.63;87.73
3444;BME280;1736;52.068;6.968;2023-01-29T04:50:24;102290.28;;;0.68;87.19
3444;BME280;1736;52.068;6.968;2023-01-29T04:52:57;102300.75;;;0.67;86.98
3444;BME280;1736;52.068;6.968;2023-01-29T04:55:32;102302.66;;;0.59;87.50
3444;BME280;1736;52.068;6.968;2023-01-29T04:58:05;102289.38;;;0.71;86.94
3444;BME280;1736;52.068;6.968;2023-01-29T05:00:37;102289.53;;;0.62;86.67
3444;BME280;1736;52.068;6.968;2023-01-29T05:03:08;102286.84;;;0.68;86.74
3444;BME280;1736;52.068;6.968;2023-01-29T05:05:39;102287.72;;;0.67;86.41
3444;BME280;1736;52.068;6.968;2023-01-29T05:08:07;102293.88;;;0.63;87.02
3444;BME280;1736;52.068;6.968;2023-01-29T05:10:35;102282.63;;;0.59;87.20
3444;BME280;1736;52.068;6.968;2023-01-29T05:13:04;102292.19;;;0.60;87.30
3444;BME280;1736;52.068;6.968;2023-01-29T05:15:36;102289.59;;;0.59;87.38
3444;BME280;1736;52.068;6.968;2023-01-29T05:18:04;102294.78;;;0.62;86.59
3444;BME280;1736;52.068;6.968;2023-01-29T05:20:36;102295.72;;;0.56;87.00
3444;BME280;1736;52.068;6.968;2023-01-29T05:23:04;102298.31;;;0.58;87.21
3444;BME280;1736;52.068;6.968;2023-01-29T05:25:34;102300.16;;;0.53;87.39
3444;BME280;1736;52.068;6.968;2023-01-29T05:28:01;102302.78;;;0.53;87.84
3444;BME280;1736;52.068;6.968;2023-01-29T05:30:34;102305.22;;;0.62;87.59
3444;BME280;1736;52.068;6.968;2023-01-29T05:33:01;102304.28;;;0.66;86.98
3444;BME280;1736;52.068;6.968;2023-01-29T05:35:29;102307.00;;;0.60;87.30
3444;BME280;1736;52.068;6.968;2023-01-29T05:37:57;102300.03;;;0.59;87.20
3444;BME280;1736;52.068;6.968;2023-01-29T05:40:24;102303.28;;;0.73;87.09
3444;BME280;1736;52.068;6.968;2023-01-29T05:42:50;102300.13;;;0.56;87.27
3444;BME280;1736;52.068;6.968;2023-01-29T05:45:17;102298.31;;;0.58;87.30
3444;BME280;1736;52.068;6.968;2023-01-29T05:47:44;102300.09;;;0.57;86.70
3444;BME280;1736;52.068;6.968;2023-01-29T05:50:11;102320.13;;;0.57;87.29
3444;BME280;1736;52.068;6.968;2023-01-29T05:52:38;102320.16;;;0.54;87.60
3444;BME280;1736;52.068;6.968;2023-01-29T05:55:08;102327.25;;;0.46;87.31
3444;BME280;1736;52.068;6.968;2023-01-29T05:57:35;102335.94;;;0.48;87.97
3444;BME280;1736;52.068;6.968;2023-01-29T06:00:03;102329.69;;;0.56;87.63
3444;BME280;1736;52.068;6.968;2023-01-29T06:02:30;102313.16;;;0.57;87.31
3444;BME280;1736;52.068;6.968;2023-01-29T06:04:57;102314.91;;;0.57;87.72
3444;BME280;1736;52.068;6.968;2023-01-29T06:07:23;102302.72;;;0.57;87.98
3444;BME280;1736;52.068;6.968;2023-01-29T06:09:50;102298.44;;;0.52;88.38
3444;BME280;1736;52.068;6.968;2023-01-29T06:12:18;102294.94;;;0.53;88.12
3444;BME280;1736;52.068;6.968;2023-01-29T06:14:44;102295.75;;;0.55;88.30
3444;BME280;1736;52.068;6.968;2023-01-29T06:17:11;102307.09;;;0.54;87.71
3444;BME280;1736;52.068;6.968;2023-01-29T06:19:37;102299.22;;;0.57;87.59
3444;BME280;1736;52.068;6.968;2023-01-29T06:22:04;102291.34;;;0.60;87.86
3444;BME280;1736;52.068;6.968;2023-01-29T06:24:31;102308.09;;;0.47;87.75
3444;BME280;1736;52.068;6.968;2023-01-29T06:26:57;102314.16;;;0.49;88.31
3444;BME280;1736;52.068;6.968;2023-01-29T06:29:25;102299.31;;;0.51;88.46
3444;BME280;1736;52.068;6.968;2023-01-29T06:31:52;102293.22;;;0.52;88.07
3444;BME280;1736;52.068;6.968;2023-01-29T06:34:18;102291.47;;;0.51;87.93
3444;BME280;1736;52.068;6.968;2023-01-29T06:36:45;102313.38;;;0.45;88.46
3444;BME280;1736;52.068;6.968;2023-01-29T06:39:11;102306.19;;;0.56;88.45
3444;BME280;1736;52.068;6.968;2023-01-29T06:41:38;102308.94;;;0.49;88.41
3444;BME280;1736;52.068;6.968;2023-01-29T06:44:04;102308.09;;;0.47;88.18
3444;BME280;1736;52.068;6.968;2023-01-29T06:46:32;102314.13;;;0.52;88.24
3444;BME280;1736;52.068;6.968;2023-01-29T06:48:59;102290.63;;;0.50;88.53
3444;BME280;1736;52.068;6.968;2023-01-29T06:51:25;102296.78;;;0.48;88.83
3444;BME280;1736;52.068;6.968;2023-01-29T06:53:52;102288.84;;;0.52;88.68
3444;BME280;1736;52.068;6.968;2023-01-29T06:56:20;102295.97;;;0.43;88.74
3444;BME280;1736;52.068;6.968;2023-01-29T06:58:47;102291.47;;;0.51;88.84
3444;BME280;1736;52.068;6.968;2023-01-29T07:01:13;102302.00;;;0.48;88.65
3444;BME280;1736;52.068;6.968;2023-01-29T07:03:41;102287.16;;;0.48;88.71
3444;BME280;1736;52.068;6.968;2023-01-29T07:06:08;102275.91;;;0.45;88.83
3444;BME280;1736;52.068;6.968;2023-01-29T07:08:35;102282.78;;;0.52;88.73
3444;BME280;1736;52.068;6.968;2023-01-29T07:11:02;102279.47;;;0.41;89.04
3444;BME280;1736;52.068;6.968;2023-01-29T07:13:29;102286.31;;;0.48;88.84
3444;BME280;1736;52.068;6.968;2023-01-29T07:15:57;102289.00;;;0.43;89.29
3444;BME280;1736;52.068;6.968;2023-01-29T07:18:23;102302.00;;;0.48;89.26
3444;BME280;1736;52.068;6.968;2023-01-29T07:20:51;102293.25;;;0.49;89.51
3444;BME280;1736;52.068;6.968;2023-01-29T07:23:18;102283.53;;;0.58;89.18
3444;BME280;1736;52.068;6.968;2023-01-29T07:25:44;102283.63;;;0.51;88.61
3444;BME280;1736;52.068;6.968;2023-01-29T07:28:14;102285.25;;;0.59;88.88
3444;BME280;1736;52.068;6.968;2023-01-29T07:30:40;102286.22;;;0.54;89.01
3444;BME280;1736;52.068;6.968;2023-01-29T07:33:08;102294.03;;;0.54;89.05
3444;BME280;1736;52.068;6.968;2023-01-29T07:35:36;102292.38;;;0.48;88.93
3444;BME280;1736;52.068;6.968;2023-01-29T07:38:04;102289.75;;;0.50;88.95
3444;BME280;1736;52.068;6.968;2023-01-29T07:40:30;102291.59;;;0.45;88.97
3444;BME280;1736;52.068;6.968;2023-01-29T07:42:57;102292.25;;;0.57;88.84
3444;BME280;1736;52.068;6.968;2023-01-29T07:45:24;102280.97;;;0.54;89.04
3444;BME280;1736;52.068;6.968;2023-01-29T07:47:51;102265.31;;;0.54;89.57
3444;BME280;1736;52.068;6.968;2023-01-29T07:50:18;102253.09;;;0.56;89.41
3444;BME280;1736;52.068;6.968;2023-01-29T07:52:45;102270.41;;;0.61;89.00
3444;BME280;1736;52.068;6.968;2023-01-29T07:55:13;102275.81;;;0.51;89.44
3444;BME280;1736;52.068;6.968;2023-01-29T07:57:40;102280.13;;;0.53;89.32
3444;BME280;1736;52.068;6.968;2023-01-29T08:00:07;102282.69;;;0.55;89.46
3444;BME280;1736;52.068;6.968;2023-01-29T08:02:36;102286.03;;;0.63;89.38
3444;BME280;1736;52.068;6.968;2023-01-29T08:05:03;102282.38;;;0.74;88.54
3444;BME280;1736;52.068;6.968;2023-01-29T08:07:30;102270.31;;;0.66;88.84
3444;BME280;1736;52.068;6.968;2023-01-29T08:09:56;102252.00;;;0.67;88.70
3444;BME280;1736;52.068;6.968;2023-01-29T08:12:24;102253.00;;;0.60;88.98
3444;BME280;1736;52.068;6.968;2023-01-29T08:14:51;102261.53;;;0.70;89.21
3444;BME280;1736;52.068;6.968;2023-01-29T08:17:17;102252.00;;;0.67;88.76
3444;BME280;1736;52.068;6.968;2023-01-29T08:19:44;102237.03;;;0.77;88.48
3444;BME280;1736;52.068;6.968;2023-01-29T08:22:10;102229.06;;;0.81;88.34
3444;BME280;1736;52.068;6.968;2023-01-29T08:24:37;102221.16;;;0.86;88.23
3444;BME280;1736;52.068;6.968;2023-01-29T08:27:04;102217.84;;;0.78;88.21
3444;BME280;1736;52.068;6.968;2023-01-29T08:29:32;102208.09;;;0.86;88.22
3444;BME280;1736;52.068;6.968;2023-01-29T08:31:58;102199.94;;;1.01;87.72
3444;BME280;1736;52.068;6.968;2023-01-29T08:34:25;102206.94;;;0.99;87.16
3444;BME280;1736;52.068;6.968;2023-01-29T08:36:51;102194.72;;;1.01;87.34
3444;BME280;1736;52.068;6.968;2023-01-29T08:39:18;102193.78;;;1.03;87.53
3444;BME280;1736;52.068;6.968;2023-01-29T08:41:45;102198.19;;;1.00;87.42
3444;BME280;1736;52.068;6.968;2023-01-29T08:44:11;102198.19;;;1.00;87.06
3444;BME280;1736;52.068;6.968;2023-01-29T08:46:39;102201.53;;;1.08;87.06
3444;BME280;1736;52.068;6.968;2023-01-29T08:49:06;102212.69;;;1.16;86.75
3444;BME280;1736;52.068;6.968;2023-01-29T08:51:33;102204.06;;;1.11;86.25
3444;BME280;1736;52.068;6.968;2023-01-29T08:53:59;102204.81;;;1.17;86.16
3444;BME280;1736;52.068;6.968;2023-01-29T08:56:26;102215.28;;;1.16;86.54
3444;BME280;1736;52.068;6.968;2023-01-29T08:58:52;102206.56;;;1.18;85.98
3444;BME280;1736;52.068;6.968;2023-01-29T09:01:19;102215.25;;;1.19;86.06
3444;BME280;1736;52.068;6.968;2023-01-29T09:03:47;102209.81;;;1.28;86.04
3444;BME280;1736;52.068;6.968;2023-01-29T09:06:14;102209.34;;;1.09;85.32
3444;BME280;1736;52.068;6.968;2023-01-29T09:08:41;102210.88;;;1.19;85.66
3444;BME280;1736;52.068;6.968;2023-01-29T09:11:07;102218.81;;;1.15;86.47
3444;BME280;1736;52.068;6.968;2023-01-29T09:13:35;102206.69;;;1.11;85.99
3444;BME280;1736;52.068;6.968;2023-01-29T09:16:02;102225.94;;;1.07;85.70
3444;BME280;1736;52.068;6.968;2023-01-29T09:18:29;102224.91;;;1.15;85.18
3444;BME280;1736;52.068;6.968;2023-01-29T09:20:58;102231.06;;;1.13;85.88
3444;BME280;1736;52.068;6.968;2023-01-29T09:23:26;102227.59;;;1.12;86.16
3444;BME280;1736;52.068;6.968;2023-01-29T09:25:52;102231.75;;;1.22;85.46
3444;BME280;1736;52.068;6.968;2023-01-29T09:28:19;102218.59;;;1.24;85.43
3444;BME280;1736;52.068;6.968;2023-01-29T09:30:45;102221.34;;;1.19;85.46
3444;BME280;1736;52.068;6.968;2023-01-29T09:33:12;102217.63;;;1.29;84.80
3444;BME280;1736;52.068;6.968;2023-01-29T09:35:39;102222.78;;;1.32;85.24
3444;BME280;1736;52.068;6.968;2023-01-29T09:38:07;102223.50;;;1.40;85.21
3444;BME280;1736;52.068;6.968;2023-01-29T09:40:40;102229.59;;;1.41;84.13
3444;BME280;1736;52.068;6.968;2023-01-29T09:43:12;102225.19;;;1.43;84.45
3444;BME280;1736;52.068;6.968;2023-01-29T09:45:48;102223.34;;;1.46;85.19
3444;BME280;1736;52.068;6.968;2023-01-29T09:48:15;102224.03;;;1.54;84.09
3444;BME280;1736;52.068;6.968;2023-01-29T09:50:46;102221.38;;;1.56;84.24
3444;BME280;1736;52.068;6.968;2023-01-29T09:53:19;102224.03;;;1.54;84.44
3444;BME280;1736;52.068;6.968;2023-01-29T09:55:49;102222.47;;;1.47;85.01
3444;BME280;1736;52.068;6.968;2023-01-29T09:58:21;102216.03;;;1.62;84.67
3444;BME280;1736;52.068;6.968;2023-01-29T10:00:57;102221.41;;;1.54;84.69
3444;BME280;1736;52.068;6.968;2023-01-29T10:03:43;102217.91;;;1.57;84.33
3444;BME280;1736;52.068;6.968;2023-01-29T10:06:24;102209.97;;;1.58;84.42
3444;BME280;1736;52.068;6.968;2023-01-29T10:09:26;102204.81;;;1.57;84.26
3444;BME280;1736;52.068;6.968;2023-01-29T10:12:10;102203.81;;;1.61;84.17
3444;BME280;1736;52.068;6.968;2023-01-29T10:14:45;102199.25;;;1.70;84.53
3444;BME280;1736;52.068;6.968;2023-01-29T10:17:25;102189.69;;;1.68;83.62
3444;BME280;1736;52.068;6.968;2023-01-29T10:20:18;102199.06;;;1.78;83.10
3444;BME280;1736;52.068;6.968;2023-01-29T10:23:01;102184.38;;;1.72;83.71
3444;BME280;1736;52.068;6.968;2023-01-29T10:25:38;102187.69;;;1.79;83.25
3444;BME280;1736;52.068;6.968;2023-01-29T10:28:14;102183.38;;;1.78;83.34
3444;BME280;1736;52.068;6.968;2023-01-29T10:30:47;102185.56;;;1.94;83.61
3444;BME280;1736;52.068;6.968;2023-01-29T10:33:19;102191.88;;;1.87;82.83
3444;BME280;1736;52.068;6.968;2023-01-29T10:35:50;102172.50;;;1.93;83.40
3444;BME280;1736;52.068;6.968;2023-01-29T10:38:25;102171.53;;;1.97;82.32
3444;BME280;1736;52.068;6.968;2023-01-29T10:41:02;102167.84;;;2.05;82.80
3444;BME280;1736;52.068;6.968;2023-01-29T10:43:37;102165.75;;;1.84;82.54
3444;BME280;1736;52.068;6.968;2023-01-29T10:46:12;102171.53;;;1.97;82.87
3444;BME280;1736;52.068;6.968;2023-01-29T10:48:48;102162.50;;;2.10;83.15
3444;BME280;1736;52.068;6.968;2023-01-29T10:51:25;102166.00;;;2.09;82.22
3444;BME280;1736;52.068;6.968;2023-01-29T10:54:07;102154.75;;;2.05;81.77
3444;BME280;1736;52.068;6.968;2023-01-29T10:56:50;102154.69;;;2.08;82.52
3444;BME280;1736;52.068;6.968;2023-01-29T10:59:35;102148.50;;;2.11;81.93
3444;BME280;1736;52.068;6.968;2023-01-29T11:02:13;102147.31;;;2.22;82.20
3444;BME280;1736;52.068;6.968;2023-01-29T11:04:42;102136.22;;;2.13;82.07
3444;BME280;1736;52.068;6.968;2023-01-29T11:07:09;102136.09;;;2.17;81.15
3444;BME280;1736;52.068;6.968;2023-01-29T11:09:41;102136.06;;;2.19;81.90
3444;BME280;1736;52.068;6.968;2023-01-29T11:12:12;102124.47;;;2.27;81.19
3444;BME280;1736;52.068;6.968;2023-01-29T11:14:43;102127.13;;;2.26;80.61
3444;BME280;1736;52.068;6.968;2023-01-29T11:17:15;102122.78;;;2.25;81.33
3444;BME280;1736;52.068;6.968;2023-01-29T11:19:44;102112.34;;;2.23;81.48
3444;BME280;1736;52.068;6.968;2023-01-29T11:22:12;102113.63;;;2.09;81.45
3444;BME280;1736;52.068;6.968;2023-01-29T11:24:40;102101.97;;;2.20;81.76
3444;BME280;1736;52.068;6.968;2023-01-29T11:27:16;102101.03;;;2.23;80.99
3444;BME280;1736;52.068;6.968;2023-01-29T11:29:48;102104.31;;;2.31;81.05
3444;BME280;1736;52.068;6.968;2023-01-29T11:32:25;102099.94;;;2.30;81.34
3444;BME280;1736;52.068;6.968;2023-01-29T11:35:02;102091.94;;;2.36;81.23
3444;BME280;1736;52.068;6.968;2023-01-29T11:37:34;102084.84;;;2.39;81.38
3444;BME280;1736;52.068;6.968;2023-01-29T11:40:34;102084.78;;;2.41;81.29
3444;BME280;1736;52.068;6.968;2023-01-29T11:43:19;102066.66;;;2.35;80.81
3444;BME280;1736;52.068;6.968;2023-01-29T11:45:47;102065.19;;;2.54;81.13
3444;BME280;1736;52.068;6.968;2023-01-29T11:48:16;102059.94;;;2.54;81.06
3444;BME280;1736;52.068;6.968;2023-01-29T11:50:50;102058.09;;;2.59;80.06
3444;BME280;1736;52.068;6.968;2023-01-29T11:53:35;102056.53;;;2.52;80.96
3444;BME280;1736;52.068;6.968;2023-01-29T11:56:05;102048.56;;;2.56;80.41
3444;BME280;1736;52.068;6.968;2023-01-29T11:58:44;102044.00;;;2.63;80.55
3444;BME280;1736;52.068;6.968;2023-01-29T12:01:11;102035.38;;;2.58;80.33
3444;BME280;1736;52.068;6.968;2023-01-29T12:03:44;102041.16;;;2.69;80.07
3444;BME280;1736;52.068;6.968;2023-01-29T12:06:19;102030.34;;;2.52;80.68
3444;BME280;1736;52.068;6.968;2023-01-29T12:08:53;102029.06;;;2.36;80.86
3444;BME280;1736;52.068;6.968;2023-01-29T12:11:27;102023.75;;;2.39;80.48
3444;BME280;1736;52.068;6.968;2023-01-29T12:13:56;102022.50;;;2.50;81.20
3444;BME280;1736;52.068;6.968;2023-01-29T12:16:26;102020.59;;;2.55;81.24
3444;BME280;1736;52.068;6.968;2023-01-29T12:18:57;102008.00;;;2.68;81.12
3444;BME280;1736;52.068;6.968;2023-01-29T12:21:31;102013.97;;;2.44;80.27
3444;BME280;1736;52.068;6.968;2023-01-29T12:24:05;101999.59;;;2.57;81.35
3444;BME280;1736;52.068;6.968;2023-01-29T12:26:40;101992.75;;;2.53;81.17
3444;BME280;1736;52.068;6.968;2023-01-29T12:29:24;101987.38;;;2.57;81.09
3444;BME280;1736;52.068;6.968;2023-01-29T12:32:02;101992.19;;;2.42;81.13
3444;BME280;1736;52.068;6.968;2023-01-29T12:34:37;101977.19;;;2.48;81.77
3444;BME280;1736;52.068;6.968;2023-01-29T12:37:15;101979.25;;;2.37;81.64
3444;BME280;1736;52.068;6.968;2023-01-29T12:39:44;101969.59;;;2.38;81.51
3444;BME280;1736;52.068;6.968;2023-01-29T12:42:14;101967.97;;;2.34;81.13
3444;BME280;1736;52.068;6.968;2023-01-29T12:44:45;101971.44;;;2.36;81.75
3444;BME280;1736;52.068;6.968;2023-01-29T12:47:18;101967.53;;;2.49;82.12
3444;BME280;1736;52.068;6.968;2023-01-29T12:49:50;101962.84;;;2.60;81.70
3444;BME280;1736;52.068;6.968;2023-01-29T12:52:21;101964.59;;;2.59;81.44
3444;BME280;1736;52.068;6.968;2023-01-29T12:54:55;101961.66;;;2.68;81.26
3444;BME280;1736;52.068;6.968;2023-01-29T12:57:31;101942.91;;;2.54;81.51
3444;BME280;1736;52.068;6.968;2023-01-29T13:00:05;101937.72;;;2.53;81.14
3444;BME280;1736;52.068;6.968;2023-01-29T13:02:38;101942.69;;;2.60;80.63
3444;BME280;1736;52.068;6.968;2023-01-29T13:05:17;101936.00;;;2.52;81.03
3444;BME280;1736;52.068;6.968;2023-01-29T13:07:50;101930.78;;;2.52;81.91
3444;BME280;1736;52.068;6.968;2023-01-29T13:10:20;101932.56;;;2.50;81.89
3444;BME280;1736;52.068;6.968;2023-01-29T13:12:53;101925.78;;;2.44;81.40
3444;BME280;1736;52.068;6.968;2023-01-29T13:15:28;101931.53;;;2.55;81.60
3444;BME280;1736;52.068;6.968;2023-01-29T13:18:00;101918.84;;;2.42;81.54
3444;BME280;1736;52.068;6.968;2023-01-29T13:20:30;101916.22;;;2.42;82.71
3444;BME280;1736;52.068;6.968;2023-01-29T13:23:03;101920.63;;;2.41;82.52
3444;BME280;1736;52.068;6.968;2023-01-29T13:25:31;101911.81;;;2.44;82.56
3444;BME280;1736;52.068;6.968;2023-01-29T13:27:58;101904.53;;;2.53;82.46
3444;BME280;1736;52.068;6.968;2023-01-29T13:30:28;101908.81;;;2.56;82.74
3444;BME280;1736;52.068;6.968;2023-01-29T13:32:57;101897.72;;;2.48;82.98
3444;BME280;1736;52.068;6.968;2023-01-29T13:35:34;101893.69;;;2.64;82.17
3444;BME280;1736;52.068;6.968;2023-01-29T13:38:02;101891.50;;;2.50;82.51
3444;BME280;1736;52.068;6.968;2023-01-29T13:40:30;101899.91;;;2.61;81.52
3444;BME280;1736;52.068;6.968;2023-01-29T13:42:59;101889.50;;;2.58;82.52
3444;BME280;1736;52.068;6.968;2023-01-29T13:45:33;101880.84;;;2.56;82.58
3444;BME280;1736;52.068;6.968;2023-01-29T13:48:08;101870.38;;;2.56;82.53